Decoded Metar for LFOK (CHALONS in FRANCE) (IATA:N/A) | Meteo·Mobile Aviation Weather
aviador You're here:

LFOK Decoded Metar

CHALONS in FRANCE
Report Time2019-02-17 07:30:00
UTC Time2019-02-17 07:57:54
Flight Rules vfr VFR
Wind160° at 08 kt
W.Decomp.*RWY 10: 4.0 kt HW 6.9 kt RCW
W.Rank160° ranks 13
Current wind is above 160° avg. (7.8)
Visibility9999 m
Phenomena:N/A
Clouds:N/A
Expected CloudBase > 1,600 ft AGL from Temp-Dew spread
CeilingNone
Temp04°C (ISA -10)
Dew Point00°C (75% RH)
AAT-0.9°C
QNH1022 hPa
Density Alt-892 ft
Elevation531 ft
Report Wrong Elevation
Raw Report
LFOK 170730Z AUTO 16008KT CAVOK 04/M00 Q1022 NOSIG=

Extra information for LFOK:More info

Metar Taf Metar & Taf Last 4 Metars F.Rules Stats Wind Profile Meteogram Temp Stats Airport Information Weather charts Add Link Nearby VenuesMetar ALERT Operation Metar Decoded Social comments